Station: Wudinna Airport

  Atmospheric Gas Attenuation - ITU Rec 676-11   --------------- db/100km ---------------
Date Time Temp RH % AH g/m3 Dew Point Wind Direction Speed kph Gust kph Barometer mB Rainfall Since 9am 24GHz 47GHz 76GHz 122GHz 134GHz 241GHz
27 12:50 20.2 28 4.9 1.1 22 26 1022.9 11.5 19.3 24.4 63.2 49.3 166.8
27 12:40 19.6 29 4.9 1.1 17 24 1023 11.6 19.4 24.6 63.7 49.7 168.0
27 12:30 19.9 30 5.15 1.8 20 33 1023 12.1 19.7 25.3 65.6 52.2 176.8
27 12:20 19.8 30 5.12 1.7 15 17 1023.1 12.0 19.7 25.2 65.4 51.9 175.9
27 12:10 19.6 30 5.06 1.6 17 24 1023.1 11.9 19.6 25.1 65.1 51.4 174.1
27 12:00 18.6 31 4.93 1.2 22 35 1023.4 11.6 19.7 25.0 64.7 50.6 171.3
27 11:50 18.5 31 4.9 1.1 26 32 1023.9 11.6 19.7 24.9 64.6 50.4 170.4
27 11:40 18.2 32 4.97 1.3 15 20 1024 11.7 19.8 25.2 65.4 51.3 173.7
27 11:30 18.6 33 5.25 2 20 30 1024.4 12.3 20.1 26.1 67.6 54.1 183.7
27 11:20 18.2 34 5.28 2.1 22 24 1024.5 12.4 20.3 26.3 68.2 54.8 185.8
27 11:10 18.2 33 5.13 1.7 17 19 1024.7 12.1 20.1 25.8 66.9 53.1 180.0
27 11:00 17.9 38 5.8 3.4 20 28 1024.9 13.5 21.0 28.2 73.2 60.8 207.0
27 10:50 17.4 37 5.48 2.6 15 19 1024.9 12.8 20.7 27.2 70.7 57.6 195.5
27 10:40 17.5 37 5.52 2.7 20 26 1024.9 12.9 20.7 27.3 71.0 57.9 196.9
27 10:30 17.2 38 5.56 2.8 24 35 1025.1 13.0 20.9 27.6 71.7 58.6 199.2
27 10:20 17.1 38 5.53 2.7 26 33 1024.9 13.0 20.9 27.5 71.5 58.3 198.2
27 10:10 17 40 5.79 3.3 24 30 1025.1 13.5 21.2 28.4 74.0 61.4 208.9
27 10:00 16.2 43 5.93 3.6 22 30 1025.2 13.8 21.6 29.2 76.0 63.6 216.7
27 09:50 16.2 43 5.93 3.6 17 20 1025.6 13.8 21.6 29.2 76.0 63.6 216.8
27 09:40 15.7 45 6.02 3.8 26 28 1025.8 14.0 21.9 29.7 77.4 65.1 221.9
27 09:30 15.7 50 6.69 5.3 20 28 1025.9 15.4 22.9 32.2 83.9 73.1 249.9
27 09:20 14.5 53 6.59 5 22 30 1026 15.3 23.0 32.3 84.1 73.0 249.4
27 09:10 13.9 55 6.59 5 20 26 1026.1 15.3 23.2 32.5 84.8 73.6 251.3
27 09:00 13.9 56 6.71 5.3 19 28 1026.1 15.6 23.4 33.0 86.0 75.0 256.5
27 08:50 13.2 59 6.77 5.4 19 26 1026.1 15.7 23.6 33.5 87.3 76.5 261.4
27 08:40 12.6 61 6.75 5.3 19 24 1026 15.7 23.8 33.6 87.8 76.8 262.4
27 08:30 11.8 63 6.63 5 19 26 1026.1 15.5 23.8 33.5 87.4 76.0 259.8
27 08:20 11.6 64 6.65 5 19 22 1026.2 15.5 23.9 33.7 87.9 76.5 261.3
27 08:10 11.1 65 6.55 4.8 22 26 1026.1 15.3 23.9 33.5 87.4 75.7 258.5
27 08:00 10.6 67 6.54 4.7 17 28 1026 15.3 24.0 33.7 87.8 76.1 259.6
27 07:50 10.4 69 6.65 5 17 20 1026 15.6 24.2 34.2 89.2 77.7 265.3
27 07:40 10.1 71 6.72 5.1 19 22 1026 15.7 24.4 34.6 90.3 78.9 269.5
27 07:30 9.5 74 6.74 5.1 15 24 1025.8 15.8 24.6 34.9 91.2 79.7 272.4
27 07:20 8.8 77 6.7 5 15 17 1025.6 15.7 24.7 35.0 91.5 79.9 272.9
27 07:10 8.1 79 6.58 4.7 15 19 1025.4 15.5 24.7 34.9 91.0 79.0 269.7
27 07:00 7.5 82 6.57 4.6 13 20 1025.4 15.5 24.8 35.1 91.6 79.5 271.3
27 06:50 7.2 83 6.52 4.5 13 17 1025.2 15.4 24.8 35.0 91.4 79.1 269.9
27 06:40 6.9 85 6.55 4.6 13 17 1025.1 15.5 25.0 35.3 92.1 79.8 272.3
27 06:30 6.6 87 6.57 4.6 15 22 1024.9 15.5 25.1 35.5 92.6 80.4 274.3
27 06:20 6.1 89 6.51 4.4 13 17 1024.8 15.4 25.1 35.4 92.5 80.1 273.1
27 06:10 5.8 91 6.52 4.4 11 15 1024.8 15.5 25.2 35.6 93.0 80.5 274.7
27 06:00 5.2 91 6.27 3.9 11 15 1024.8 15.0 25.0 34.8 90.9 77.7 264.7
27 05:50 5.1 91 6.23 3.8 11 13 1024.7 14.9 24.9 34.7 90.6 77.3 263.1
27 05:40 4.9 91 6.15 3.6 9 9 1024.6 14.7 24.8 34.5 89.9 76.4 259.9
27 05:30 4.9 91 6.15 3.6 9 13 1024.7 14.7 24.8 34.5 89.9 76.4 260.0
27 05:10 4.7 91 6.07 3.4 9 9 1024.5 14.5 24.8 34.2 89.3 75.5 256.7
27 04:40 4.7 92 6.13 3.5 9 11 1024.3 14.7 24.8 34.5 89.9 76.3 259.6
27 04:30 4.5 92 6.05 3.3 11 13 1024.5 14.5 24.8 34.2 89.3 75.4 256.4
27 04:20 4.7 92 6.13 3.5 11 11 1024.2 14.7 24.8 34.4 89.9 76.3 259.6
27 04:10 4.3 91 5.91 3 9 9 1024.2 14.2 24.6 33.7 87.9 73.6 250.3
27 04:00 4.4 92 6.01 3.2 7 9 1024.3 14.4 24.7 34.1 88.9 74.9 254.8
27 03:50 4.4 92 6.01 3.2 7 9 1024.3 14.4 24.7 34.1 88.9 74.9 254.8
27 03:40 4.5 91 5.99 3.2 7 9 1024.2 14.4 24.7 34.0 88.6 74.5 253.5
27 03:30 4.6 91 6.03 3.3 9 11 1024.3 14.5 24.7 34.1 88.9 75.0 255.1
27 03:20 4.6 91 6.03 3.3 7 9 1024.3 14.5 24.7 34.1 88.9 75.0 255.1
27 03:10 4.5 91 5.99 3.2 7 9 1024.4 14.4 24.7 34.0 88.6 74.6 253.5
27 03:00 4.5 91 5.99 3.2 7 9 1024.5 14.4 24.7 34.0 88.6 74.6 253.6
27 02:50 4.7 91 6.07 3.4 7 7 1024.4 14.5 24.7 34.2 89.3 75.5 256.7
27 02:40 4.7 89 5.93 3 7 7 1024.5 14.2 24.5 33.6 87.7 73.6 250.1
27 02:30 5.3 89 6.17 3.6 7 9 1024.6 14.7 24.8 34.4 89.7 76.2 259.6
27 02:20 5.2 89 6.13 3.5 7 7 1024.4 14.7 24.7 34.2 89.3 75.8 257.9
27 02:10 5.5 89 6.25 3.8 7 9 1024.6 14.9 24.8 34.6 90.3 77.1 262.7
27 02:00 5.5 89 6.25 3.8 7 9 1024.7 14.9 24.8 34.6 90.4 77.1 262.7
27 01:50 5.6 89 6.3 3.9 6 7 1024.6 15.0 24.9 34.8 90.8 77.7 264.8
27 01:40 5.5 89 6.25 3.8 7 7 1024.6 14.9 24.8 34.6 90.3 77.1 262.7
27 01:30 5.8 89 6.38 4.1 7 9 1024.7 15.2 25.0 35.0 91.4 78.6 267.9
27 01:20 5.8 89 6.38 4.1 7 9 1024.7 15.2 25.0 35.0 91.4 78.6 267.9
27 01:10 5.5 88 6.18 3.7 7 9 1024.8 14.8 24.7 34.3 89.6 76.2 259.4
27 01:00 5.4 87 6.07 3.4 9 11 1025 14.5 24.6 33.9 88.5 74.8 254.6
27 00:50 5.6 87 6.15 3.6 9 9 1024.9 14.7 24.7 34.2 89.2 75.7 257.7
27 00:40 5.8 87 6.24 3.8 7 9 1024.9 14.9 24.7 34.5 89.9 76.7 261.3
27 00:30 5.4 83 5.79 2.8 6 9 1025 13.9 24.1 32.8 85.5 71.1 241.3
27 00:20 7.4 82 6.52 4.5 7 9 1025.1 15.4 24.8 34.9 91.2 78.9 269.2
27 00:10 7.6 82 6.61 4.7 9 11 1024.9 15.6 24.9 35.2 91.9 79.9 272.7
27 00:00 7.8 81 6.61 4.7 9 15 1025 15.6 24.8 35.1 91.7 79.7 272.0
26 23:50 7.8 80 6.53 4.6 7 9 1024.9 15.4 24.7 34.8 90.8 78.6 268.2
26 23:40 8 80 6.62 4.8 9 11 1025.1 15.6 24.8 35.1 91.5 79.6 271.8
26 23:30 7.9 80 6.57 4.7 11 13 1025.1 15.5 24.7 34.9 91.1 79.1 269.8
26 23:20 8 79 6.53 4.6 7 9 1025.2 15.4 24.6 34.7 90.6 78.4 267.6
26 23:10 8.2 78 6.53 4.6 13 13 1025.2 15.4 24.6 34.6 90.3 78.2 267.0
26 23:00 8.4 78 6.62 4.8 11 13 1025.2 15.6 24.7 34.9 91.1 79.2 270.5
26 22:50 8.4 78 6.62 4.8 11 13 1025.1 15.6 24.7 34.9 91.1 79.2 270.4
26 22:40 8.3 77 6.49 4.5 9 11 1025.1 15.3 24.5 34.4 89.8 77.6 264.7
26 22:30 8.5 76 6.49 4.5 9 13 1025.1 15.3 24.4 34.3 89.6 77.4 264.1
26 22:20 8.7 76 6.58 4.7 9 13 1024.9 15.5 24.5 34.6 90.3 78.4 267.5
26 22:10 8.8 75 6.53 4.6 9 11 1024.8 15.4 24.4 34.3 89.6 77.6 264.8
26 22:00 8.9 74 6.48 4.5 9 11 1024.9 15.3 24.3 34.1 89.0 76.9 262.2
26 21:50 9.2 73 6.52 4.6 9 11 1024.8 15.3 24.3 34.1 89.1 77.1 263.0
26 21:40 9.4 73 6.6 4.8 11 13 1024.7 15.5 24.3 34.4 89.7 77.9 266.0
26 21:30 9.4 73 6.6 4.8 9 11 1024.8 15.5 24.3 34.4 89.7 77.9 266.1
26 21:20 9.6 72 6.6 4.8 9 9 1024.7 15.5 24.3 34.3 89.4 77.7 265.4
26 21:10 9.7 72 6.64 4.9 9 9 1024.8 15.6 24.3 34.4 89.8 78.2 266.9
26 21:00 9.6 72 6.6 4.8 9 11 1024.8 15.5 24.3 34.3 89.5 77.7 265.4
26 20:50 9.6 70 6.41 4.4 9 11 1024.7 15.1 24.0 33.5 87.4 75.3 256.7
26 20:40 9.9 69 6.44 4.5 9 9 1024.6 15.1 23.9 33.5 87.4 75.3 257.1
26 20:30 10.5 68 6.6 4.9 17 20 1024.5 15.5 24.0 33.9 88.4 76.8 262.3
26 20:20 10.8 66 6.52 4.7 17 20 1024.3 15.3 23.8 33.4 87.2 75.5 257.7
26 20:10 10.8 67 6.62 4.9 15 17 1024.2 15.5 24.0 33.8 88.3 76.8 262.2
26 20:00 10.8 67 6.62 4.9 13 15 1024.3 15.5 24.0 33.8 88.3 76.8 262.2
26 19:50 11.3 66 6.73 5.2 13 15 1024 15.7 24.0 34.0 88.8 77.7 265.4

Last Refresh: 27-Sep-2020 13:02:37

Most of the information presented on this site is sourced from the Bureau of Meteorology.  Copyright in all material sourced from the Bureau of Meteorology resides with the Commonwealth of Australia.